METAR Austria - 19 Feb 2018 - 0158 UTC - RocketRoute WX - rrwx.com
LOWG 190150Z AUTO 08004KT 9999 FEW026 BKN034 M01/M05 Q1024 LOWI 190150Z AUTO VRB01KT 9999 FEW012 SCT026 M02/M03 Q1019 LOWK 190150Z AUTO 05004KT 9999 FEW044 BKN048 M00/M04 Q1022 LOWL 190150Z AUTO 08013KT 9999 NSC M01/M06 Q1023 LOWS 190150Z AUTO 17002KT 7000 FEW001 M05/M06 Q1020 LOWW 190150Z 35004KT 9999 FEW038 M04/M06 Q1025 R88/12//95 NOSIG LOAN   LOXZ  

RocketRoute WX - rrwx.com weather for pilots